sensor_id;sensor_type;location;lat;lon;timestamp;temperature;humidity
24250;DHT22;12379;49.820;8.648;2023-10-13T00:00:13;17.80;99.90
24250;DHT22;12379;49.820;8.648;2023-10-13T00:02:51;17.90;99.90
24250;DHT22;12379;49.820;8.648;2023-10-13T00:05:20;17.90;99.90
24250;DHT22;12379;49.820;8.648;2023-10-13T00:07:45;17.90;99.90
24250;DHT22;12379;49.820;8.648;2023-10-13T00:10:12;17.90;99.90
24250;DHT22;12379;49.820;8.648;2023-10-13T00:12:37;17.90;99.90
24250;DHT22;12379;49.820;8.648;2023-10-13T00:15:04;17.90;99.90
24250;DHT22;12379;49.820;8.648;2023-10-13T00:17:32;17.90;99.90
24250;DHT22;12379;49.820;8.648;2023-10-13T00:19:58;17.90;99.90
24250;DHT22;12379;49.820;8.648;2023-10-13T00:22:25;17.80;99.90
24250;DHT22;12379;49.820;8.648;2023-10-13T00:24:56;17.80;99.90
24250;DHT22;12379;49.820;8.648;2023-10-13T00:27:24;17.80;99.90
24250;DHT22;12379;49.820;8.648;2023-10-13T00:29:54;17.80;99.90
24250;DHT22;12379;49.820;8.648;2023-10-13T00:32:41;17.80;99.90
24250;DHT22;12379;49.820;8.648;2023-10-13T00:35:12;17.90;99.90
24250;DHT22;12379;49.820;8.648;2023-10-13T00:37:40;17.90;99.90
24250;DHT22;12379;49.820;8.648;2023-10-13T00:40:12;17.90;99.90
24250;DHT22;12379;49.820;8.648;2023-10-13T00:43:03;17.80;99.90
24250;DHT22;12379;49.820;8.648;2023-10-13T00:45:45;17.80;99.90
24250;DHT22;12379;49.820;8.648;2023-10-13T00:48:25;17.80;99.90
24250;DHT22;12379;49.820;8.648;2023-10-13T00:51:04;17.70;99.90
24250;DHT22;12379;49.820;8.648;2023-10-13T00:53:34;17.70;99.90
24250;DHT22;12379;49.820;8.648;2023-10-13T00:56:06;17.70;99.90
24250;DHT22;12379;49.820;8.648;2023-10-13T00:58:37;17.70;99.90
24250;DHT22;12379;49.820;8.648;2023-10-13T01:01:05;17.70;99.90
24250;DHT22;12379;49.820;8.648;2023-10-13T01:03:53;17.60;99.90
24250;DHT22;12379;49.820;8.648;2023-10-13T01:06:26;17.60;99.90
24250;DHT22;12379;49.820;8.648;2023-10-13T01:09:04;17.50;99.90
24250;DHT22;12379;49.820;8.648;2023-10-13T01:11:46;17.50;99.90
24250;DHT22;12379;49.820;8.648;2023-10-13T01:14:19;17.50;99.90
24250;DHT22;12379;49.820;8.648;2023-10-13T01:16:47;17.50;99.90
24250;DHT22;12379;49.820;8.648;2023-10-13T01:19:14;17.40;99.90
24250;DHT22;12379;49.820;8.648;2023-10-13T01:21:44;17.50;99.90
24250;DHT22;12379;49.820;8.648;2023-10-13T01:24:10;17.50;99.90
24250;DHT22;12379;49.820;8.648;2023-10-13T01:26:40;17.40;99.90
24250;DHT22;12379;49.820;8.648;2023-10-13T01:29:08;17.40;99.90
24250;DHT22;12379;49.820;8.648;2023-10-13T01:31:43;17.40;99.90
24250;DHT22;12379;49.820;8.648;2023-10-13T01:34:13;17.50;99.90
24250;DHT22;12379;49.820;8.648;2023-10-13T01:36:45;17.50;99.90
24250;DHT22;12379;49.820;8.648;2023-10-13T01:39:11;17.50;99.90
24250;DHT22;12379;49.820;8.648;2023-10-13T01:41:42;17.50;99.90
24250;DHT22;12379;49.820;8.648;2023-10-13T01:44:08;17.50;99.90
24250;DHT22;12379;49.820;8.648;2023-10-13T01:46:40;17.60;99.90
24250;DHT22;12379;49.820;8.648;2023-10-13T01:49:08;17.70;99.90
24250;DHT22;12379;49.820;8.648;2023-10-13T01:51:34;17.90;99.90
24250;DHT22;12379;49.820;8.648;2023-10-13T01:53:59;18.00;99.90
24250;DHT22;12379;49.820;8.648;2023-10-13T01:56:28;18.00;99.90
24250;DHT22;12379;49.820;8.648;2023-10-13T01:58:55;18.10;99.90
24250;DHT22;12379;49.820;8.648;2023-10-13T02:01:21;18.20;99.90
24250;DHT22;12379;49.820;8.648;2023-10-13T02:03:55;18.20;99.90
24250;DHT22;12379;49.820;8.648;2023-10-13T02:06:32;18.30;99.90
24250;DHT22;12379;49.820;8.648;2023-10-13T02:09:05;18.30;99.90
24250;DHT22;12379;49.820;8.648;2023-10-13T02:11:43;18.30;99.90
24250;DHT22;12379;49.820;8.648;2023-10-13T02:14:12;18.30;99.90
24250;DHT22;12379;49.820;8.648;2023-10-13T02:16:40;18.20;99.90
24250;DHT22;12379;49.820;8.648;2023-10-13T02:19:06;18.20;99.90
24250;DHT22;12379;49.820;8.648;2023-10-13T02:21:35;18.20;99.90
24250;DHT22;12379;49.820;8.648;2023-10-13T02:24:11;18.20;99.90
24250;DHT22;12379;49.820;8.648;2023-10-13T02:26:44;18.20;99.90
24250;DHT22;12379;49.820;8.648;2023-10-13T02:29:11;18.20;99.90
24250;DHT22;12379;49.820;8.648;2023-10-13T02:31:39;18.20;99.90
24250;DHT22;12379;49.820;8.648;2023-10-13T02:34:06;18.20;99.90
24250;DHT22;12379;49.820;8.648;2023-10-13T02:36:35;18.20;99.90
24250;DHT22;12379;49.820;8.648;2023-10-13T02:39:05;18.10;99.90
24250;DHT22;12379;49.820;8.648;2023-10-13T02:41:35;18.10;99.90
24250;DHT22;12379;49.820;8.648;2023-10-13T02:44:04;18.10;99.90
24250;DHT22;12379;49.820;8.648;2023-10-13T02:46:35;18.20;99.90
24250;DHT22;12379;49.820;8.648;2023-10-13T02:49:05;18.10;99.90
24250;DHT22;12379;49.820;8.648;2023-10-13T02:51:37;18.10;99.90
24250;DHT22;12379;49.820;8.648;2023-10-13T02:54:06;18.10;99.90
24250;DHT22;12379;49.820;8.648;2023-10-13T02:56:40;18.10;99.90
24250;DHT22;12379;49.820;8.648;2023-10-13T02:59:35;18.00;99.90
24250;DHT22;12379;49.820;8.648;2023-10-13T03:02:14;18.00;99.90
24250;DHT22;12379;49.820;8.648;2023-10-13T03:04:50;18.00;99.90
24250;DHT22;12379;49.820;8.648;2023-10-13T03:07:16;18.00;99.90
24250;DHT22;12379;49.820;8.648;2023-10-13T03:09:48;18.10;99.90
24250;DHT22;12379;49.820;8.648;2023-10-13T03:12:20;18.10;99.90
24250;DHT22;12379;49.820;8.648;2023-10-13T03:14:47;18.10;99.90
24250;DHT22;12379;49.820;8.648;2023-10-13T03:17:29;18.10;99.90
24250;DHT22;12379;49.820;8.648;2023-10-13T03:20:01;18.10;99.90
24250;DHT22;12379;49.820;8.648;2023-10-13T03:22:26;18.10;99.90
24250;DHT22;12379;49.820;8.648;2023-10-13T03:24:59;18.20;99.90
24250;DHT22;12379;49.820;8.648;2023-10-13T03:27:38;18.20;99.90
24250;DHT22;12379;49.820;8.648;2023-10-13T03:30:28;18.30;99.90
24250;DHT22;12379;49.820;8.648;2023-10-13T03:33:05;18.30;99.90
24250;DHT22;12379;49.820;8.648;2023-10-13T03:35:39;18.30;99.90
24250;DHT22;12379;49.820;8.648;2023-10-13T03:38:11;18.30;99.90
24250;DHT22;12379;49.820;8.648;2023-10-13T03:40:44;18.30;99.90
24250;DHT22;12379;49.820;8.648;2023-10-13T03:43:32;18.30;99.90
24250;DHT22;12379;49.820;8.648;2023-10-13T03:45:58;18.20;99.90
24250;DHT22;12379;49.820;8.648;2023-10-13T03:48:33;18.30;99.90
24250;DHT22;12379;49.820;8.648;2023-10-13T03:51:06;18.30;99.90
24250;DHT22;12379;49.820;8.648;2023-10-13T03:53:42;18.20;99.90
24250;DHT22;12379;49.820;8.648;2023-10-13T03:56:21;18.20;99.90
24250;DHT22;12379;49.820;8.648;2023-10-13T03:59:13;18.30;99.90
24250;DHT22;12379;49.820;8.648;2023-10-13T04:01:38;18.30;99.90
24250;DHT22;12379;49.820;8.648;2023-10-13T04:04:23;18.30;99.90
24250;DHT22;12379;49.820;8.648;2023-10-13T04:07:14;18.30;99.90
24250;DHT22;12379;49.820;8.648;2023-10-13T04:09:59;18.20;99.90
24250;DHT22;12379;49.820;8.648;2023-10-13T04:12:57;18.20;99.90
24250;DHT22;12379;49.820;8.648;2023-10-13T04:15:43;18.20;99.90
24250;DHT22;12379;49.820;8.648;2023-10-13T04:18:28;18.20;99.90
24250;DHT22;12379;49.820;8.648;2023-10-13T04:21:16;18.30;99.90
24250;DHT22;12379;49.820;8.648;2023-10-13T04:24:12;18.30;99.90
24250;DHT22;12379;49.820;8.648;2023-10-13T04:26:44;18.30;99.90
24250;DHT22;12379;49.820;8.648;2023-10-13T04:29:28;18.40;99.90
24250;DHT22;12379;49.820;8.648;2023-10-13T04:32:12;18.40;99.90
24250;DHT22;12379;49.820;8.648;2023-10-13T04:34:41;18.50;99.90
24250;DHT22;12379;49.820;8.648;2023-10-13T04:37:14;18.50;99.90
24250;DHT22;12379;49.820;8.648;2023-10-13T04:39:57;18.50;99.90
24250;DHT22;12379;49.820;8.648;2023-10-13T04:42:35;18.50;99.90
24250;DHT22;12379;49.820;8.648;2023-10-13T04:45:19;18.50;99.90
24250;DHT22;12379;49.820;8.648;2023-10-13T04:47:54;18.50;99.90
24250;DHT22;12379;49.820;8.648;2023-10-13T04:50:38;18.50;99.90
24250;DHT22;12379;49.820;8.648;2023-10-13T04:53:27;18.60;99.90
24250;DHT22;12379;49.820;8.648;2023-10-13T04:56:00;18.60;99.90
24250;DHT22;12379;49.820;8.648;2023-10-13T04:58:30;18.60;99.90
24250;DHT22;12379;49.820;8.648;2023-10-13T05:01:02;18.60;99.90
24250;DHT22;12379;49.820;8.648;2023-10-13T05:03:46;18.70;99.90
24250;DHT22;12379;49.820;8.648;2023-10-13T05:06:19;18.70;99.90
24250;DHT22;12379;49.820;8.648;2023-10-13T05:09:03;18.70;99.90
24250;DHT22;12379;49.820;8.648;2023-10-13T05:11:47;18.70;99.90
24250;DHT22;12379;49.820;8.648;2023-10-13T05:14:31;18.70;99.90
24250;DHT22;12379;49.820;8.648;2023-10-13T05:17:15;18.70;99.90
24250;DHT22;12379;49.820;8.648;2023-10-13T05:19:59;18.70;99.90
24250;DHT22;12379;49.820;8.648;2023-10-13T05:22:43;18.70;99.90
24250;DHT22;12379;49.820;8.648;2023-10-13T05:25:27;18.70;99.90
24250;DHT22;12379;49.820;8.648;2023-10-13T05:28:12;18.70;99.90
24250;DHT22;12379;49.820;8.648;2023-10-13T05:30:59;18.60;99.90
24250;DHT22;12379;49.820;8.648;2023-10-13T05:33:43;18.70;99.90
24250;DHT22;12379;49.820;8.648;2023-10-13T05:36:27;18.70;99.90
24250;DHT22;12379;49.820;8.648;2023-10-13T05:39:11;18.80;99.90
24250;DHT22;12379;49.820;8.648;2023-10-13T05:41:55;18.80;99.90
24250;DHT22;12379;49.820;8.648;2023-10-13T05:44:39;18.80;99.90
24250;DHT22;12379;49.820;8.648;2023-10-13T05:47:22;18.80;99.90
24250;DHT22;12379;49.820;8.648;2023-10-13T05:50:06;18.80;99.90
24250;DHT22;12379;49.820;8.648;2023-10-13T05:52:41;18.80;99.90
24250;DHT22;12379;49.820;8.648;2023-10-13T05:55:26;18.90;99.90
24250;DHT22;12379;49.820;8.648;2023-10-13T05:58:10;19.00;99.90
24250;DHT22;12379;49.820;8.648;2023-10-13T06:00:55;19.00;99.90
24250;DHT22;12379;49.820;8.648;2023-10-13T06:03:40;19.00;99.90
24250;DHT22;12379;49.820;8.648;2023-10-13T06:06:24;19.00;99.90
24250;DHT22;12379;49.820;8.648;2023-10-13T06:09:08;19.00;99.90
24250;DHT22;12379;49.820;8.648;2023-10-13T06:11:52;19.00;99.90
24250;DHT22;12379;49.820;8.648;2023-10-13T06:14:36;19.00;99.90
24250;DHT22;12379;49.820;8.648;2023-10-13T06:17:20;19.00;99.90
24250;DHT22;12379;49.820;8.648;2023-10-13T06:20:05;19.00;99.90
24250;DHT22;12379;49.820;8.648;2023-10-13T06:22:50;19.10;99.90
24250;DHT22;12379;49.820;8.648;2023-10-13T06:25:34;19.20;99.90
24250;DHT22;12379;49.820;8.648;2023-10-13T06:28:19;19.20;99.90
24250;DHT22;12379;49.820;8.648;2023-10-13T06:31:04;19.30;99.90
24250;DHT22;12379;49.820;8.648;2023-10-13T06:33:34;19.40;99.90
24250;DHT22;12379;49.820;8.648;2023-10-13T06:36:03;19.50;99.90
24250;DHT22;12379;49.820;8.648;2023-10-13T06:38:37;19.50;99.90
24250;DHT22;12379;49.820;8.648;2023-10-13T06:41:03;19.60;99.90
24250;DHT22;12379;49.820;8.648;2023-10-13T06:43:40;19.80;99.90
24250;DHT22;12379;49.820;8.648;2023-10-13T06:46:11;19.80;99.90
24250;DHT22;12379;49.820;8.648;2023-10-13T06:48:46;20.00;99.90
24250;DHT22;12379;49.820;8.648;2023-10-13T06:51:11;20.10;99.90
24250;DHT22;12379;49.820;8.648;2023-10-13T06:53:46;20.30;99.90
24250;DHT22;12379;49.820;8.648;2023-10-13T06:56:16;20.40;99.90
24250;DHT22;12379;49.820;8.648;2023-10-13T06:58:47;20.60;99.90
24250;DHT22;12379;49.820;8.648;2023-10-13T07:01:13;20.80;99.90
24250;DHT22;12379;49.820;8.648;2023-10-13T07:03:44;21.20;99.90
24250;DHT22;12379;49.820;8.648;2023-10-13T07:06:14;21.70;99.90
24250;DHT22;12379;49.820;8.648;2023-10-13T07:08:45;22.30;99.90
24250;DHT22;12379;49.820;8.648;2023-10-13T07:11:17;22.70;99.90
24250;DHT22;12379;49.820;8.648;2023-10-13T07:14:02;23.10;99.90
24250;DHT22;12379;49.820;8.648;2023-10-13T07:17:05;23.40;99.90
24250;DHT22;12379;49.820;8.648;2023-10-13T07:19:31;23.80;99.90
24250;DHT22;12379;49.820;8.648;2023-10-13T07:21:59;24.00;99.90
24250;DHT22;12379;49.820;8.648;2023-10-13T07:24:29;24.10;99.90
24250;DHT22;12379;49.820;8.648;2023-10-13T07:26:58;24.10;99.90
24250;DHT22;12379;49.820;8.648;2023-10-13T07:29:29;23.80;99.90
24250;DHT22;12379;49.820;8.648;2023-10-13T07:31:54;23.80;99.90
24250;DHT22;12379;49.820;8.648;2023-10-13T07:34:20;24.00;99.90
24250;DHT22;12379;49.820;8.648;2023-10-13T07:36:57;24.20;99.90
24250;DHT22;12379;49.820;8.648;2023-10-13T07:39:29;24.30;99.90
24250;DHT22;12379;49.820;8.648;2023-10-13T07:42:04;23.90;99.90
24250;DHT22;12379;49.820;8.648;2023-10-13T07:44:32;24.00;99.90
24250;DHT22;12379;49.820;8.648;2023-10-13T07:46:59;24.10;99.90
24250;DHT22;12379;49.820;8.648;2023-10-13T07:49:51;24.00;99.90
24250;DHT22;12379;49.820;8.648;2023-10-13T07:52:17;24.10;99.90
24250;DHT22;12379;49.820;8.648;2023-10-13T07:54:47;24.40;99.60
24250;DHT22;12379;49.820;8.648;2023-10-13T07:57:21;24.10;99.30
24250;DHT22;12379;49.820;8.648;2023-10-13T07:59:53;24.00;99.00
24250;DHT22;12379;49.820;8.648;2023-10-13T08:02:31;24.00;99.70
24250;DHT22;12379;49.820;8.648;2023-10-13T08:05:17;23.80;99.30
24250;DHT22;12379;49.820;8.648;2023-10-13T08:07:54;23.20;99.90
24250;DHT22;12379;49.820;8.648;2023-10-13T08:10:22;22.80;99.90
24250;DHT22;12379;49.820;8.648;2023-10-13T08:12:55;22.60;99.90
24250;DHT22;12379;49.820;8.648;2023-10-13T08:15:22;23.30;99.90
24250;DHT22;12379;49.820;8.648;2023-10-13T08:17:58;23.70;99.70
24250;DHT22;12379;49.820;8.648;2023-10-13T08:20:24;24.00;98.90
24250;DHT22;12379;49.820;8.648;2023-10-13T08:22:55;24.30;98.20
24250;DHT22;12379;49.820;8.648;2023-10-13T08:25:39;24.20;97.10
24250;DHT22;12379;49.820;8.648;2023-10-13T08:28:23;23.80;98.70
24250;DHT22;12379;49.820;8.648;2023-10-13T08:31:06;23.30;99.90
24250;DHT22;12379;49.820;8.648;2023-10-13T08:33:48;23.00;99.90
24250;DHT22;12379;49.820;8.648;2023-10-13T08:36:14;22.70;99.90
24250;DHT22;12379;49.820;8.648;2023-10-13T08:38:57;22.90;99.90
24250;DHT22;12379;49.820;8.648;2023-10-13T08:41:23;23.00;99.90
24250;DHT22;12379;49.820;8.648;2023-10-13T08:43:52;23.30;99.90
24250;DHT22;12379;49.820;8.648;2023-10-13T08:46:30;23.80;99.60
24250;DHT22;12379;49.820;8.648;2023-10-13T08:49:16;24.50;98.10
24250;DHT22;12379;49.820;8.648;2023-10-13T08:51:43;25.40;95.40
24250;DHT22;12379;49.820;8.648;2023-10-13T08:54:14;25.70;95.20
24250;DHT22;12379;49.820;8.648;2023-10-13T08:57:02;25.80;93.60
24250;DHT22;12379;49.820;8.648;2023-10-13T08:59:58;26.10;92.20
24250;DHT22;12379;49.820;8.648;2023-10-13T09:02:44;26.20;91.70
24250;DHT22;12379;49.820;8.648;2023-10-13T09:05:35;26.50;91.60
24250;DHT22;12379;49.820;8.648;2023-10-13T09:08:27;26.50;90.70
24250;DHT22;12379;49.820;8.648;2023-10-13T09:11:02;26.70;90.40
24250;DHT22;12379;49.820;8.648;2023-10-13T09:13:40;26.50;90.10
24250;DHT22;12379;49.820;8.648;2023-10-13T09:16:15;26.70;89.00
24250;DHT22;12379;49.820;8.648;2023-10-13T09:19:16;26.50;90.00
24250;DHT22;12379;49.820;8.648;2023-10-13T09:21:41;26.70;87.00
24250;DHT22;12379;49.820;8.648;2023-10-13T09:24:11;26.30;88.10
24250;DHT22;12379;49.820;8.648;2023-10-13T09:26:43;26.20;90.10
24250;DHT22;12379;49.820;8.648;2023-10-13T09:29:20;26.80;87.70
24250;DHT22;12379;49.820;8.648;2023-10-13T09:31:47;27.10;85.50
24250;DHT22;12379;49.820;8.648;2023-10-13T09:34:22;26.90;85.50
24250;DHT22;12379;49.820;8.648;2023-10-13T09:36:49;26.70;85.80
24250;DHT22;12379;49.820;8.648;2023-10-13T09:39:23;26.90;85.20
24250;DHT22;12379;49.820;8.648;2023-10-13T09:42:04;26.80;86.10
24250;DHT22;12379;49.820;8.648;2023-10-13T09:44:36;26.80;84.90
24250;DHT22;12379;49.820;8.648;2023-10-13T09:47:05;26.40;86.10
24250;DHT22;12379;49.820;8.648;2023-10-13T09:49:39;26.30;86.30
24250;DHT22;12379;49.820;8.648;2023-10-13T09:52:18;26.20;86.70
24250;DHT22;12379;49.820;8.648;2023-10-13T09:55:04;26.00;87.70
24250;DHT22;12379;49.820;8.648;2023-10-13T09:57:38;25.50;88.60
24250;DHT22;12379;49.820;8.648;2023-10-13T10:00:20;24.90;90.60
24250;DHT22;12379;49.820;8.648;2023-10-13T10:03:06;24.60;91.70
24250;DHT22;12379;49.820;8.648;2023-10-13T10:05:56;24.50;92.30
24250;DHT22;12379;49.820;8.648;2023-10-13T10:08:30;24.10;93.70
24250;DHT22;12379;49.820;8.648;2023-10-13T10:16:40;23.80;94.70
24250;DHT22;12379;49.820;8.648;2023-10-13T10:19:12;23.80;95.10
24250;DHT22;12379;49.820;8.648;2023-10-13T10:21:37;23.80;94.80
24250;DHT22;12379;49.820;8.648;2023-10-13T10:24:14;23.80;94.70
24250;DHT22;12379;49.820;8.648;2023-10-13T10:26:50;23.80;94.80
24250;DHT22;12379;49.820;8.648;2023-10-13T10:29:19;23.80;94.70
24250;DHT22;12379;49.820;8.648;2023-10-13T10:31:45;23.90;94.90
24250;DHT22;12379;49.820;8.648;2023-10-13T10:34:17;23.80;94.90
24250;DHT22;12379;49.820;8.648;2023-10-13T10:36:54;23.90;94.70
24250;DHT22;12379;49.820;8.648;2023-10-13T10:39:20;24.00;94.10
24250;DHT22;12379;49.820;8.648;2023-10-13T10:41:47;24.30;94.00
24250;DHT22;12379;49.820;8.648;2023-10-13T10:44:19;24.40;93.30
24250;DHT22;12379;49.820;8.648;2023-10-13T10:47:13;24.60;92.80
24250;DHT22;12379;49.820;8.648;2023-10-13T10:49:59;24.70;92.60
24250;DHT22;12379;49.820;8.648;2023-10-13T10:52:27;24.70;92.20
24250;DHT22;12379;49.820;8.648;2023-10-13T10:55:01;24.70;92.00
24250;DHT22;12379;49.820;8.648;2023-10-13T10:57:27;24.70;91.80
24250;DHT22;12379;49.820;8.648;2023-10-13T11:00:03;24.80;91.10
24250;DHT22;12379;49.820;8.648;2023-10-13T11:02:37;24.90;90.80
24250;DHT22;12379;49.820;8.648;2023-10-13T11:05:03;25.00;90.30
24250;DHT22;12379;49.820;8.648;2023-10-13T11:07:31;25.10;90.50
24250;DHT22;12379;49.820;8.648;2023-10-13T11:10:10;25.20;90.80
24250;DHT22;12379;49.820;8.648;2023-10-13T11:12:54;25.30;89.80
24250;DHT22;12379;49.820;8.648;2023-10-13T11:15:20;25.30;89.60
24250;DHT22;12379;49.820;8.648;2023-10-13T11:17:52;25.30;88.80
24250;DHT22;12379;49.820;8.648;2023-10-13T11:20:20;25.10;89.10
24250;DHT22;12379;49.820;8.648;2023-10-13T11:22:58;25.10;90.00
24250;DHT22;12379;49.820;8.648;2023-10-13T11:25:27;25.20;89.80
24250;DHT22;12379;49.820;8.648;2023-10-13T11:28:13;25.10;89.80
24250;DHT22;12379;49.820;8.648;2023-10-13T11:31:05;25.10;89.00
24250;DHT22;12379;49.820;8.648;2023-10-13T11:33:43;25.10;90.20
24250;DHT22;12379;49.820;8.648;2023-10-13T11:36:12;25.10;90.20
24250;DHT22;12379;49.820;8.648;2023-10-13T11:38:43;25.10;89.20
24250;DHT22;12379;49.820;8.648;2023-10-13T11:41:15;25.20;89.30
24250;DHT22;12379;49.820;8.648;2023-10-13T11:43:44;25.30;88.90
24250;DHT22;12379;49.820;8.648;2023-10-13T11:46:35;25.30;88.30
24250;DHT22;12379;49.820;8.648;2023-10-13T11:49:06;25.30;88.40
24250;DHT22;12379;49.820;8.648;2023-10-13T11:51:41;25.40;87.50
24250;DHT22;12379;49.820;8.648;2023-10-13T11:54:19;25.40;88.70
24250;DHT22;12379;49.820;8.648;2023-10-13T11:56:47;25.40;87.40
24250;DHT22;12379;49.820;8.648;2023-10-13T11:59:16;25.40;87.70
24250;DHT22;12379;49.820;8.648;2023-10-13T12:01:54;25.50;86.90
24250;DHT22;12379;49.820;8.648;2023-10-13T12:04:39;25.50;87.30
24250;DHT22;12379;49.820;8.648;2023-10-13T12:07:20;25.60;85.50
24250;DHT22;12379;49.820;8.648;2023-10-13T12:09:51;25.60;85.50
24250;DHT22;12379;49.820;8.648;2023-10-13T12:12:23;25.50;86.50
24250;DHT22;12379;49.820;8.648;2023-10-13T12:14:48;25.40;87.00
24250;DHT22;12379;49.820;8.648;2023-10-13T12:17:25;25.30;86.60
24250;DHT22;12379;49.820;8.648;2023-10-13T12:19:57;25.40;86.30
24250;DHT22;12379;49.820;8.648;2023-10-13T12:22:23;25.50;86.80
24250;DHT22;12379;49.820;8.648;2023-10-13T12:25:00;25.60;86.10
24250;DHT22;12379;49.820;8.648;2023-10-13T12:27:30;25.70;85.60
24250;DHT22;12379;49.820;8.648;2023-10-13T12:30:11;25.80;85.40
24250;DHT22;12379;49.820;8.648;2023-10-13T12:32:40;26.00;84.80
24250;DHT22;12379;49.820;8.648;2023-10-13T12:35:10;25.90;84.00
24250;DHT22;12379;49.820;8.648;2023-10-13T12:37:36;25.80;85.10
24250;DHT22;12379;49.820;8.648;2023-10-13T12:40:04;25.70;85.90
24250;DHT22;12379;49.820;8.648;2023-10-13T12:42:49;25.70;86.20
24250;DHT22;12379;49.820;8.648;2023-10-13T12:45:33;25.80;86.60
24250;DHT22;12379;49.820;8.648;2023-10-13T12:48:22;25.90;86.20
24250;DHT22;12379;49.820;8.648;2023-10-13T12:51:06;26.10;85.50
24250;DHT22;12379;49.820;8.648;2023-10-13T12:53:51;26.20;85.00
24250;DHT22;12379;49.820;8.648;2023-10-13T12:56:17;26.30;84.90
24250;DHT22;12379;49.820;8.648;2023-10-13T12:58:43;26.30;84.20
24250;DHT22;12379;49.820;8.648;2023-10-13T13:01:22;26.50;83.80
24250;DHT22;12379;49.820;8.648;2023-10-13T13:03:50;26.50;82.30
24250;DHT22;12379;49.820;8.648;2023-10-13T13:06:20;26.50;82.40
24250;DHT22;12379;49.820;8.648;2023-10-13T13:08:52;26.60;82.40
24250;DHT22;12379;49.820;8.648;2023-10-13T13:11:18;26.60;83.30
24250;DHT22;12379;49.820;8.648;2023-10-13T13:13:44;26.70;83.20
24250;DHT22;12379;49.820;8.648;2023-10-13T13:16:18;26.60;82.10
24250;DHT22;12379;49.820;8.648;2023-10-13T13:18:44;26.50;81.60
24250;DHT22;12379;49.820;8.648;2023-10-13T13:21:10;26.40;82.10
24250;DHT22;12379;49.820;8.648;2023-10-13T13:23:53;26.30;82.10
24250;DHT22;12379;49.820;8.648;2023-10-13T13:26:20;26.30;81.50
24250;DHT22;12379;49.820;8.648;2023-10-13T13:28:48;26.20;81.70
24250;DHT22;12379;49.820;8.648;2023-10-13T13:31:23;26.10;82.50
24250;DHT22;12379;49.820;8.648;2023-10-13T13:33:55;26.00;83.60
24250;DHT22;12379;49.820;8.648;2023-10-13T13:36:20;26.00;82.30
24250;DHT22;12379;49.820;8.648;2023-10-13T13:38:47;26.00;81.80
24250;DHT22;12379;49.820;8.648;2023-10-13T13:41:17;26.00;82.40
24250;DHT22;12379;49.820;8.648;2023-10-13T13:43:48;26.00;82.10
24250;DHT22;12379;49.820;8.648;2023-10-13T13:46:21;26.10;83.30
24250;DHT22;12379;49.820;8.648;2023-10-13T13:48:51;26.10;83.00
24250;DHT22;12379;49.820;8.648;2023-10-13T13:51:23;26.20;83.90
24250;DHT22;12379;49.820;8.648;2023-10-13T13:53:54;26.20;82.60
24250;DHT22;12379;49.820;8.648;2023-10-13T13:56:19;26.20;83.40
24250;DHT22;12379;49.820;8.648;2023-10-13T13:58:46;26.10;84.00
24250;DHT22;12379;49.820;8.648;2023-10-13T14:01:12;26.00;85.60
24250;DHT22;12379;49.820;8.648;2023-10-13T14:03:41;25.90;83.70
24250;DHT22;12379;49.820;8.648;2023-10-13T14:06:20;25.90;84.90
24250;DHT22;12379;49.820;8.648;2023-10-13T14:08:49;25.80;85.80
24250;DHT22;12379;49.820;8.648;2023-10-13T14:11:20;25.70;85.10
24250;DHT22;12379;49.820;8.648;2023-10-13T14:14:02;25.70;83.30
24250;DHT22;12379;49.820;8.648;2023-10-13T14:16:47;25.70;83.70
24250;DHT22;12379;49.820;8.648;2023-10-13T14:19:17;25.70;83.40
24250;DHT22;12379;49.820;8.648;2023-10-13T14:22:05;25.70;82.60
24250;DHT22;12379;49.820;8.648;2023-10-13T14:24:37;25.70;83.40
24250;DHT22;12379;49.820;8.648;2023-10-13T14:27:09;25.60;85.00
24250;DHT22;12379;49.820;8.648;2023-10-13T14:29:41;25.70;81.60
24250;DHT22;12379;49.820;8.648;2023-10-13T14:32:08;25.80;82.10
24250;DHT22;12379;49.820;8.648;2023-10-13T14:34:39;25.90;81.10
24250;DHT22;12379;49.820;8.648;2023-10-13T14:37:04;25.90;81.50
24250;DHT22;12379;49.820;8.648;2023-10-13T14:39:30;26.00;81.40
24250;DHT22;12379;49.820;8.648;2023-10-13T14:41:56;26.10;80.90
24250;DHT22;12379;49.820;8.648;2023-10-13T14:44:21;26.10;79.70
24250;DHT22;12379;49.820;8.648;2023-10-13T14:46:52;26.00;79.50
24250;DHT22;12379;49.820;8.648;2023-10-13T14:49:20;25.90;79.20
24250;DHT22;12379;49.820;8.648;2023-10-13T14:51:46;25.80;79.80
24250;DHT22;12379;49.820;8.648;2023-10-13T14:56:14;25.70;79.80
24250;DHT22;12379;49.820;8.648;2023-10-13T14:58:40;25.60;80.00
24250;DHT22;12379;49.820;8.648;2023-10-13T15:01:15;25.60;79.90
24250;DHT22;12379;49.820;8.648;2023-10-13T15:03:49;25.60;79.50
24250;DHT22;12379;49.820;8.648;2023-10-13T15:06:19;25.60;79.90
24250;DHT22;12379;49.820;8.648;2023-10-13T15:08:52;25.60;80.50
24250;DHT22;12379;49.820;8.648;2023-10-13T15:11:20;25.50;80.20
24250;DHT22;12379;49.820;8.648;2023-10-13T15:13:47;25.60;79.50
24250;DHT22;12379;49.820;8.648;2023-10-13T15:16:20;25.70;77.60
24250;DHT22;12379;49.820;8.648;2023-10-13T15:18:47;25.70;77.60
24250;DHT22;12379;49.820;8.648;2023-10-13T15:23:54;25.80;76.40
24250;DHT22;12379;49.820;8.648;2023-10-13T15:26:25;25.80;76.50
24250;DHT22;12379;49.820;8.648;2023-10-13T15:28:50;25.70;76.20
24250;DHT22;12379;49.820;8.648;2023-10-13T15:31:21;25.70;75.30
24250;DHT22;12379;49.820;8.648;2023-10-13T15:34:03;25.70;75.60
24250;DHT22;12379;49.820;8.648;2023-10-13T15:36:33;25.60;76.60
24250;DHT22;12379;49.820;8.648;2023-10-13T15:38:59;25.50;76.40
24250;DHT22;12379;49.820;8.648;2023-10-13T15:41:27;25.40;76.50
24250;DHT22;12379;49.820;8.648;2023-10-13T15:43:53;25.30;77.10
24250;DHT22;12379;49.820;8.648;2023-10-13T15:46:21;25.20;76.50
24250;DHT22;12379;49.820;8.648;2023-10-13T15:48:47;25.20;76.90
24250;DHT22;12379;49.820;8.648;2023-10-13T15:51:13;25.00;77.70
24250;DHT22;12379;49.820;8.648;2023-10-13T15:53:39;25.00;76.90
24250;DHT22;12379;49.820;8.648;2023-10-13T15:56:05;25.00;76.20
24250;DHT22;12379;49.820;8.648;2023-10-13T15:58:43;25.00;76.10
24250;DHT22;12379;49.820;8.648;2023-10-13T16:01:10;25.00;76.30
24250;DHT22;12379;49.820;8.648;2023-10-13T16:03:42;24.90;76.20
24250;DHT22;12379;49.820;8.648;2023-10-13T16:06:10;24.80;76.40
24250;DHT22;12379;49.820;8.648;2023-10-13T16:08:39;24.80;76.50
24250;DHT22;12379;49.820;8.648;2023-10-13T16:11:10;24.80;76.60
24250;DHT22;12379;49.820;8.648;2023-10-13T16:13:45;24.70;76.50
24250;DHT22;12379;49.820;8.648;2023-10-13T16:16:15;24.70;76.60
24250;DHT22;12379;49.820;8.648;2023-10-13T16:18:44;24.60;76.10
24250;DHT22;12379;49.820;8.648;2023-10-13T16:21:11;24.60;76.80
24250;DHT22;12379;49.820;8.648;2023-10-13T16:23:44;24.60;76.80